createdAt,value
2022-10-14T00:01:21.554Z,10.62
2022-10-14T00:03:59.799Z,11.33
2022-10-14T00:06:38.826Z,10.89
2022-10-14T00:09:17.036Z,10.90
2022-10-14T00:11:55.262Z,10.57
2022-10-14T00:14:34.040Z,11.21
2022-10-14T00:17:11.150Z,11.28
2022-10-14T00:19:51.274Z,11.48
2022-10-14T00:22:29.911Z,11.11
2022-10-14T00:25:08.878Z,11.15
2022-10-14T00:27:47.922Z,10.73
2022-10-14T00:30:25.989Z,10.77
2022-10-14T00:33:06.369Z,11.26
2022-10-14T00:35:44.853Z,10.87
2022-10-14T00:38:24.141Z,11.49
2022-10-14T00:41:02.176Z,11.10
2022-10-14T00:43:59.734Z,10.90
2022-10-14T00:46:38.668Z,10.88
2022-10-14T00:49:20.883Z,10.30
2022-10-14T00:52:03.719Z,10.67
2022-10-14T00:54:45.657Z,11.21
2022-10-14T00:57:23.373Z,11.30
2022-10-14T01:00:04.314Z,10.93
2022-10-14T01:02:49.048Z,10.83
2022-10-14T01:05:32.348Z,11.35
2022-10-14T01:08:13.312Z,11.36
2022-10-14T01:10:55.596Z,11.49
2022-10-14T01:13:42.710Z,11.01
2022-10-14T01:16:26.266Z,11.26
2022-10-14T01:19:23.222Z,10.88
2022-10-14T01:22:22.543Z,10.77
2022-10-14T01:25:09.377Z,10.80
2022-10-14T01:27:52.987Z,10.37
2022-10-14T01:30:32.088Z,11.15
2022-10-14T01:33:14.818Z,11.08
2022-10-14T01:35:57.184Z,11.31
2022-10-14T01:38:56.146Z,11.52
2022-10-14T01:41:36.147Z,11.49
2022-10-14T01:44:16.153Z,11.07
2022-10-14T01:46:56.309Z,10.77
2022-10-14T01:49:38.958Z,10.74
2022-10-14T01:52:23.222Z,11.35
2022-10-14T01:55:02.882Z,10.52
2022-10-14T01:57:41.005Z,11.13
2022-10-14T02:00:18.704Z,10.72
2022-10-14T02:02:58.766Z,11.24
2022-10-14T02:05:39.952Z,11.39
2022-10-14T02:08:32.695Z,10.59
2022-10-14T02:11:18.426Z,10.14
2022-10-14T02:14:09.260Z,9.74
2022-10-14T02:17:20.902Z,11.06
2022-10-14T02:20:01.849Z,10.80
2022-10-14T02:22:52.300Z,11.44
2022-10-14T02:25:32.538Z,10.93
2022-10-14T02:28:11.753Z,11.41
2022-10-14T02:30:53.215Z,10.99
2022-10-14T02:33:34.247Z,11.02
2022-10-14T02:36:12.911Z,11.05
2022-10-14T02:38:51.253Z,10.66
2022-10-14T02:41:30.365Z,11.20
2022-10-14T02:44:08.748Z,10.78
2022-10-14T02:46:47.374Z,11.24
2022-10-14T02:49:26.555Z,10.83
2022-10-14T02:52:04.901Z,11.07
2022-10-14T02:54:43.259Z,10.70
2022-10-14T02:57:20.529Z,10.90
2022-10-14T02:59:59.186Z,10.45
2022-10-14T03:02:37.728Z,10.76
2022-10-14T03:05:16.347Z,10.42
2022-10-14T03:07:55.249Z,11.43
2022-10-14T03:10:35.452Z,11.40
2022-10-14T03:13:14.689Z,11.16
2022-10-14T03:15:52.685Z,11.28
2022-10-14T03:18:35.128Z,11.03
2022-10-14T03:21:15.518Z,11.45
2022-10-14T03:23:55.037Z,11.54
2022-10-14T03:26:37.060Z,11.13
2022-10-14T03:29:15.775Z,10.44
2022-10-14T03:31:54.558Z,11.18
2022-10-14T03:34:36.116Z,11.25
2022-10-14T03:37:14.771Z,11.52
2022-10-14T03:39:53.606Z,11.25
2022-10-14T03:42:32.085Z,11.43
2022-10-14T03:45:10.878Z,11.08
2022-10-14T03:47:49.544Z,11.19
2022-10-14T03:50:34.635Z,10.70
2022-10-14T03:53:13.342Z,10.53
2022-10-14T03:55:51.749Z,10.18
2022-10-14T03:58:32.798Z,9.76
2022-10-14T04:01:10.903Z,11.26
2022-10-14T04:03:50.992Z,11.19
2022-10-14T04:06:28.320Z,11.12
2022-10-14T04:09:06.917Z,10.61
2022-10-14T04:11:45.775Z,9.61
2022-10-14T04:14:26.959Z,11.05
2022-10-14T04:17:04.662Z,11.42
2022-10-14T04:19:50.029Z,10.98
2022-10-14T04:22:30.040Z,11.52
2022-10-14T04:25:08.694Z,11.18
2022-10-14T04:27:48.141Z,11.33
2022-10-14T04:30:27.343Z,10.93
2022-10-14T04:33:09.702Z,11.26
2022-10-14T04:35:58.035Z,10.90
2022-10-14T04:38:39.376Z,10.75
2022-10-14T04:41:18.101Z,10.79
2022-10-14T04:43:59.870Z,10.79
2022-10-14T04:46:39.784Z,11.40
2022-10-14T04:49:17.785Z,10.85
2022-10-14T04:51:57.680Z,10.65
2022-10-14T04:54:37.823Z,10.78
2022-10-14T04:57:18.015Z,10.32
2022-10-14T04:59:58.809Z,11.45
2022-10-14T05:02:40.531Z,11.40
2022-10-14T05:05:19.030Z,11.03
2022-10-14T05:07:59.253Z,10.86
2022-10-14T05:10:39.495Z,10.38
2022-10-14T05:13:18.284Z,10.70
2022-10-14T05:15:57.341Z,10.29
2022-10-14T05:18:41.709Z,10.59
2022-10-14T05:21:22.872Z,10.71
2022-10-14T05:24:02.518Z,10.64
2022-10-14T05:26:41.153Z,10.12
2022-10-14T05:29:19.694Z,11.07
2022-10-14T05:32:00.062Z,10.34
2022-10-14T05:34:38.802Z,10.11
2022-10-14T05:37:17.436Z,11.02
2022-10-14T05:40:01.061Z,11.25
2022-10-14T05:42:41.743Z,10.82
2022-10-14T05:45:22.495Z,10.76
2022-10-14T05:48:01.862Z,10.44
2022-10-14T05:50:42.205Z,10.67
2022-10-14T05:53:22.221Z,10.51
2022-10-14T05:56:02.044Z,10.21
2022-10-14T05:58:42.224Z,11.06
2022-10-14T06:01:24.109Z,10.67
2022-10-14T06:04:03.225Z,10.70
2022-10-14T06:06:42.122Z,10.33
2022-10-14T06:09:24.511Z,10.68
2022-10-14T06:12:05.692Z,10.24
2022-10-14T06:14:44.072Z,10.96
2022-10-14T06:17:22.730Z,10.31
2022-10-14T06:20:01.442Z,10.12
2022-10-14T06:22:40.592Z,11.34
2022-10-14T06:25:22.917Z,11.59
2022-10-14T06:28:05.944Z,11.23
2022-10-14T06:30:51.045Z,11.93
2022-10-14T06:33:38.436Z,11.76
2022-10-14T06:36:17.925Z,11.32
2022-10-14T06:38:57.383Z,12.16
2022-10-14T06:41:36.266Z,11.71
2022-10-14T06:44:25.696Z,11.82
2022-10-14T06:47:04.753Z,12.56
2022-10-14T06:49:45.614Z,12.20
2022-10-14T06:52:24.194Z,11.76
2022-10-14T06:55:03.985Z,11.78
2022-10-14T06:57:45.186Z,12.38
2022-10-14T07:00:25.458Z,12.06
2022-10-14T07:03:04.502Z,12.55
2022-10-14T07:05:44.779Z,12.91
2022-10-14T07:08:23.006Z,12.58
2022-10-14T07:11:02.382Z,12.52
2022-10-14T07:16:28.988Z,12.30
2022-10-14T07:19:07.710Z,13.12
2022-10-14T07:21:48.359Z,13.11
2022-10-14T07:24:26.311Z,12.78
2022-10-14T07:27:04.768Z,13.87
2022-10-14T07:29:43.265Z,13.40
2022-10-14T07:32:22.816Z,13.26
2022-10-14T07:35:00.685Z,13.37
2022-10-14T07:37:47.012Z,14.31
2022-10-14T09:50:55.783Z,20.08
2022-10-14T09:53:47.740Z,19.73
2022-10-14T09:56:42.449Z,19.79
2022-10-14T09:59:28.989Z,19.39
2022-10-14T10:02:25.321Z,20.56
2022-10-14T10:05:12.206Z,19.67
2022-10-14T10:08:02.022Z,19.87
2022-10-14T10:11:03.853Z,21.33
2022-10-14T10:13:52.413Z,22.30
2022-10-14T10:16:38.905Z,22.96
2022-10-14T10:19:28.869Z,23.47
2022-10-14T10:25:08.699Z,22.77
2022-10-14T10:27:56.682Z,22.58
2022-10-14T10:30:50.790Z,23.32
2022-10-14T10:33:40.831Z,22.30
2022-10-14T10:36:36.895Z,21.91
2022-10-14T10:39:28.721Z,22.81
2022-10-14T10:42:17.440Z,23.75
2022-10-14T10:45:17.918Z,23.63
2022-10-14T10:48:08.169Z,24.11
2022-10-14T10:51:03.159Z,23.61
2022-10-14T10:53:52.153Z,23.37
2022-10-14T10:56:42.828Z,23.20
2022-10-14T10:59:33.338Z,21.17
2022-10-14T11:02:35.294Z,21.86
2022-10-14T11:05:24.087Z,22.26
2022-10-14T11:11:45.514Z,19.88
2022-10-14T11:14:41.680Z,20.69
2022-10-14T11:21:03.747Z,20.45
2022-10-14T11:24:04.055Z,20.91
2022-10-14T11:26:50.161Z,19.43
2022-10-14T11:29:41.219Z,20.21
2022-10-14T11:32:45.611Z,20.14
2022-10-14T11:35:44.226Z,19.24
2022-10-14T11:38:40.659Z,19.50
2022-10-14T11:41:34.906Z,19.29
2022-10-14T11:44:29.725Z,20.68
2022-10-14T11:47:19.966Z,19.53
2022-10-14T11:50:06.669Z,19.90
2022-10-14T11:53:18.804Z,20.79
2022-10-14T11:56:07.075Z,20.82
2022-10-14T11:58:53.120Z,21.70
2022-10-14T12:01:39.621Z,21.14
2022-10-14T12:04:28.130Z,21.04
2022-10-14T12:07:18.411Z,20.61
2022-10-14T12:10:20.044Z,20.55
2022-10-14T12:13:08.423Z,21.11
2022-10-14T12:15:54.412Z,21.12
2022-10-14T12:18:40.426Z,21.44
2022-10-14T12:21:28.158Z,21.90
2022-10-14T12:24:15.685Z,21.37
2022-10-14T12:27:04.781Z,21.36
2022-10-14T12:29:51.233Z,21.79
2022-10-14T12:32:37.111Z,21.68
2022-10-14T12:35:53.326Z,21.20
2022-10-14T12:38:39.510Z,21.65
2022-10-14T12:41:38.624Z,21.36
2022-10-14T12:44:28.907Z,22.05
2022-10-14T12:47:19.159Z,22.35
2022-10-14T12:50:14.895Z,22.48
2022-10-14T12:53:01.684Z,22.61
2022-10-14T12:55:56.105Z,23.02
2022-10-14T12:58:42.714Z,22.67
2022-10-14T13:01:32.326Z,23.77
2022-10-14T13:04:22.228Z,23.58
2022-10-14T13:07:40.094Z,23.95
2022-10-14T13:10:45.000Z,23.32
2022-10-14T13:13:38.567Z,24.11
2022-10-14T13:16:24.446Z,21.90
2022-10-14T13:19:17.150Z,21.61
2022-10-14T13:22:28.515Z,20.66
2022-10-14T13:25:18.899Z,21.45
2022-10-14T13:28:06.321Z,23.26
2022-10-14T13:31:12.682Z,24.07
2022-10-14T13:34:18.679Z,24.92
2022-10-14T13:37:04.614Z,24.95
2022-10-14T13:39:50.502Z,24.69
2022-10-14T13:42:36.633Z,25.51
2022-10-14T13:45:22.699Z,25.62
2022-10-14T13:48:11.528Z,25.63
2022-10-14T13:51:17.277Z,24.39
2022-10-14T13:54:14.425Z,25.52
2022-10-14T14:00:42.863Z,26.57
2022-10-14T14:03:33.230Z,26.54
2022-10-14T14:06:19.674Z,26.75
2022-10-14T14:09:05.928Z,26.91
2022-10-14T14:11:52.874Z,27.06
2022-10-14T14:14:42.522Z,26.54
2022-10-14T14:17:31.133Z,26.32
2022-10-14T14:20:22.092Z,26.74
2022-10-14T14:23:10.628Z,26.62
2022-10-14T14:26:14.384Z,26.98
2022-10-14T14:29:04.153Z,26.74
2022-10-14T14:32:07.476Z,26.87
2022-10-14T14:37:56.054Z,26.62
2022-10-14T14:40:42.361Z,26.52
2022-10-14T14:43:31.511Z,26.46
2022-10-14T14:46:22.260Z,26.18
2022-10-14T14:49:08.147Z,25.65
2022-10-14T14:51:54.174Z,26.00
2022-10-14T14:54:44.181Z,26.29
2022-10-14T14:57:29.835Z,26.10
2022-10-14T15:00:19.651Z,25.51
2022-10-14T15:03:05.786Z,24.97
2022-10-14T15:06:01.902Z,24.73
2022-10-14T15:08:49.092Z,24.51
2022-10-14T15:11:35.363Z,24.09
2022-10-14T15:14:27.470Z,23.57
2022-10-14T15:17:23.588Z,23.48
2022-10-14T15:20:28.904Z,23.23
2022-10-14T15:23:34.198Z,23.03
2022-10-14T15:26:33.760Z,22.74
2022-10-14T15:32:11.893Z,22.59
2022-10-14T15:35:01.006Z,22.14
2022-10-14T15:37:47.001Z,21.99
2022-10-14T15:40:33.192Z,21.87
2022-10-14T15:43:20.363Z,21.73
2022-10-14T15:46:24.909Z,21.50
2022-10-14T15:49:14.104Z,21.39
2022-10-14T15:52:00.085Z,21.18
2022-10-14T15:54:45.980Z,20.94
2022-10-14T15:57:33.265Z,20.64
2022-10-14T16:00:23.249Z,20.69
2022-10-14T16:03:09.425Z,20.45
2022-10-14T16:05:55.314Z,20.25
2022-10-14T16:08:42.894Z,20.26
2022-10-14T16:11:29.978Z,19.94
2022-10-14T16:14:16.521Z,19.94
2022-10-14T16:17:03.067Z,19.83
2022-10-14T16:19:49.380Z,19.73
2022-10-14T16:22:35.448Z,18.91
2022-10-14T16:25:50.716Z,19.27
2022-10-14T16:28:36.654Z,19.20
2022-10-14T16:31:22.946Z,19.21
2022-10-14T16:34:11.510Z,18.95
2022-10-14T16:36:57.902Z,19.09
2022-10-14T16:39:43.883Z,19.07
2022-10-14T16:42:31.026Z,18.75
2022-10-14T16:45:16.636Z,18.70
2022-10-14T16:48:02.903Z,18.73
2022-10-14T16:50:52.292Z,18.61
2022-10-14T16:53:41.310Z,18.32
2022-10-14T16:56:45.912Z,18.30
2022-10-14T16:59:32.094Z,18.06
2022-10-14T17:02:17.999Z,18.00
2022-10-14T17:05:04.126Z,17.97
2022-10-14T17:07:49.763Z,17.85
2022-10-14T17:10:35.721Z,17.96
2022-10-14T17:13:21.593Z,18.06
2022-10-14T17:16:07.916Z,17.88
2022-10-14T17:18:54.133Z,17.58
2022-10-14T17:21:40.390Z,17.47
2022-10-14T17:24:26.215Z,17.44
2022-10-14T17:27:12.418Z,17.32
2022-10-14T17:29:58.655Z,17.05
2022-10-14T17:32:44.606Z,16.89
2022-10-14T17:35:30.471Z,17.07
2022-10-14T17:38:17.857Z,16.94
2022-10-14T17:41:04.335Z,16.95
2022-10-14T17:43:54.627Z,16.55
2022-10-14T17:46:40.646Z,16.38
2022-10-14T17:49:26.935Z,16.53
2022-10-14T17:52:12.822Z,16.63
2022-10-14T17:55:01.416Z,16.41
2022-10-14T17:57:47.788Z,16.59
2022-10-14T18:00:33.929Z,16.70
2022-10-14T18:03:20.286Z,16.69
2022-10-14T18:06:10.213Z,16.40
2022-10-14T18:09:01.149Z,16.34
2022-10-14T18:14:53.458Z,16.32
2022-10-14T18:17:39.507Z,16.15
2022-10-14T18:20:25.964Z,15.99
2022-10-14T18:23:12.568Z,15.74
2022-10-14T18:26:06.273Z,15.77
2022-10-14T18:28:55.773Z,15.72
2022-10-14T18:31:42.324Z,15.56
2022-10-14T18:34:28.519Z,15.33
2022-10-14T18:37:14.465Z,15.61
2022-10-14T18:40:00.357Z,15.40
2022-10-14T18:42:46.278Z,15.40
2022-10-14T18:45:34.202Z,15.42
2022-10-14T18:48:22.070Z,15.50
2022-10-14T18:51:08.857Z,15.53
2022-10-14T18:53:57.192Z,15.56
2022-10-14T18:56:44.447Z,15.67
2022-10-14T18:59:30.916Z,15.65
2022-10-14T19:02:16.977Z,15.46
2022-10-14T19:05:03.373Z,15.09
2022-10-14T19:07:49.251Z,15.20
2022-10-14T19:10:35.665Z,15.06
2022-10-14T19:13:21.507Z,14.98
2022-10-14T19:16:09.068Z,15.13
2022-10-14T19:18:55.215Z,15.19
2022-10-14T19:21:41.415Z,14.74
2022-10-14T19:24:27.294Z,14.76
2022-10-14T19:27:13.226Z,14.77
2022-10-14T19:29:59.069Z,14.72
2022-10-14T19:32:45.289Z,13.95
2022-10-14T19:35:31.176Z,12.75
2022-10-14T19:38:17.234Z,12.25
2022-10-14T19:41:04.338Z,12.02
2022-10-14T19:43:50.552Z,12.24
2022-10-14T19:46:36.238Z,13.07
2022-10-14T19:49:22.634Z,13.78
2022-10-14T19:52:08.639Z,14.02
2022-10-14T19:54:54.458Z,14.03
2022-10-14T19:57:40.306Z,13.60
2022-10-14T20:00:26.629Z,13.54
2022-10-14T20:03:12.991Z,13.86
2022-10-14T20:06:02.184Z,14.00
2022-10-14T20:08:41.218Z,13.43
2022-10-14T20:11:22.535Z,13.66
2022-10-14T20:14:01.865Z,13.13
2022-10-14T20:16:52.181Z,13.32
2022-10-14T20:19:33.896Z,14.24
2022-10-14T20:22:13.753Z,14.21
2022-10-14T20:24:58.522Z,13.83
2022-10-14T20:27:53.101Z,13.81
2022-10-14T20:30:33.796Z,13.93
2022-10-14T20:33:15.431Z,13.64
2022-10-14T20:36:05.090Z,13.85
2022-10-14T20:38:53.328Z,13.50
2022-10-14T20:41:34.495Z,13.43
2022-10-14T20:44:28.544Z,13.43
2022-10-14T20:47:07.166Z,13.39
2022-10-14T20:49:46.460Z,13.69
2022-10-14T20:52:24.801Z,13.29
2022-10-14T20:55:04.185Z,13.58
2022-10-14T20:57:44.006Z,13.52
2022-10-14T21:00:23.004Z,13.04
2022-10-14T21:03:01.526Z,13.60
2022-10-14T21:05:55.303Z,13.60
2022-10-14T21:08:38.653Z,13.01
2022-10-14T21:11:19.393Z,12.73
2022-10-14T21:13:59.667Z,13.04
2022-10-14T21:16:42.242Z,13.35
2022-10-14T21:19:23.840Z,13.50
2022-10-14T21:22:03.686Z,13.08
2022-10-14T21:24:43.345Z,13.77
2022-10-14T21:27:21.266Z,13.33
2022-10-14T21:29:59.500Z,13.43
2022-10-14T21:32:38.100Z,13.37
2022-10-14T21:35:15.241Z,13.67
2022-10-14T21:37:54.689Z,13.11
2022-10-14T21:40:32.995Z,12.73
2022-10-14T21:43:11.157Z,13.56
2022-10-14T21:45:49.970Z,13.75
2022-10-14T21:48:28.486Z,13.53
2022-10-14T21:51:15.234Z,13.10
2022-10-14T21:53:55.169Z,13.62
2022-10-14T21:56:33.898Z,13.29
2022-10-14T21:59:12.150Z,13.31
2022-10-14T22:01:50.743Z,12.67
2022-10-14T22:04:28.138Z,13.20
2022-10-14T22:07:07.105Z,13.23
2022-10-14T22:09:45.713Z,12.87
2022-10-14T22:12:38.790Z,12.87
2022-10-14T22:15:16.685Z,11.77
2022-10-14T22:18:02.135Z,12.20
2022-10-14T22:20:41.928Z,12.94
2022-10-14T22:23:19.101Z,13.07
2022-10-14T22:26:02.128Z,13.33
2022-10-14T22:28:41.691Z,13.53
2022-10-14T22:31:20.970Z,13.61
2022-10-14T22:33:59.012Z,13.45
2022-10-14T22:36:37.934Z,13.25
2022-10-14T22:39:16.544Z,13.20
2022-10-14T22:41:54.654Z,13.02
2022-10-14T22:44:33.153Z,12.68
2022-10-14T22:47:10.400Z,12.79
2022-10-14T22:49:49.139Z,12.48
2022-10-14T22:52:28.096Z,13.20
2022-10-14T22:55:06.624Z,13.27
2022-10-14T22:57:46.847Z,12.92
2022-10-14T23:00:31.973Z,13.09
2022-10-14T23:03:14.060Z,12.83
2022-10-14T23:05:52.205Z,12.71
2022-10-14T23:08:32.852Z,12.90
2022-10-14T23:11:18.456Z,12.45
2022-10-14T23:13:56.207Z,12.77
2022-10-14T23:16:36.188Z,12.94
2022-10-14T23:19:13.511Z,12.73
2022-10-14T23:21:50.520Z,12.37
2022-10-14T23:24:27.601Z,12.44
2022-10-14T23:27:04.937Z,12.89
2022-10-14T23:29:43.354Z,12.20
2022-10-14T23:32:22.309Z,12.62
2022-10-14T23:35:01.003Z,12.62
2022-10-14T23:37:39.424Z,12.50
2022-10-14T23:40:16.401Z,12.53
2022-10-14T23:42:54.918Z,12.64
2022-10-14T23:45:32.620Z,12.20
2022-10-14T23:48:11.170Z,12.31
2022-10-14T23:50:49.528Z,11.83
2022-10-14T23:53:28.608Z,12.36
2022-10-14T23:56:07.079Z,11.97
2022-10-14T23:58:45.547Z,12.17
